sensor_id;sensor_type;location;lat;lon;timestamp;pressure;altitude;pressure_sealevel;temperature;humidity
50368;BME280;36281;34.132;-118.018;2024-03-08T00:01:21;99733.88;;;15.20;92.19
50368;BME280;36281;34.132;-118.018;2024-03-08T00:03:50;99741.63;;;15.21;93.08
50368;BME280;36281;34.132;-118.018;2024-03-08T00:06:20;99746.06;;;15.16;92.51
50368;BME280;36281;34.132;-118.018;2024-03-08T00:08:50;99744.97;;;14.78;92.59
50368;BME280;36281;34.132;-118.018;2024-03-08T00:11:19;99751.41;;;14.65;93.35
50368;BME280;36281;34.132;-118.018;2024-03-08T00:13:50;99754.50;;;14.57;93.38
50368;BME280;36281;34.132;-118.018;2024-03-08T00:16:20;99747.56;;;14.44;93.53
50368;BME280;36281;34.132;-118.018;2024-03-08T00:18:51;99755.03;;;14.31;94.63
50368;BME280;36281;34.132;-118.018;2024-03-08T00:21:20;99766.31;;;14.21;94.00
50368;BME280;36281;34.132;-118.018;2024-03-08T00:23:49;99769.69;;;14.16;95.39
50368;BME280;36281;34.132;-118.018;2024-03-08T00:26:19;99756.19;;;14.06;94.89
50368;BME280;36281;34.132;-118.018;2024-03-08T00:28:48;99756.47;;;13.81;94.39
50368;BME280;36281;34.132;-118.018;2024-03-08T00:31:17;99761.63;;;13.59;95.97
50368;BME280;36281;34.132;-118.018;2024-03-08T00:33:47;99767.53;;;13.26;98.19
50368;BME280;36281;34.132;-118.018;2024-03-08T00:36:17;99766.22;;;12.93;100.00
50368;BME280;36281;34.132;-118.018;2024-03-08T00:38:46;99769.78;;;12.87;100.00
50368;BME280;36281;34.132;-118.018;2024-03-08T00:41:15;99776.69;;;12.77;100.00
50368;BME280;36281;34.132;-118.018;2024-03-08T00:43:44;99800.59;;;12.65;100.00
50368;BME280;36281;34.132;-118.018;2024-03-08T00:46:15;99820.84;;;12.48;100.00
50368;BME280;36281;34.132;-118.018;2024-03-08T00:48:44;99835.00;;;12.30;100.00
50368;BME280;36281;34.132;-118.018;2024-03-08T00:51:15;99837.50;;;12.25;100.00
50368;BME280;36281;34.132;-118.018;2024-03-08T00:53:44;99847.59;;;12.34;100.00
50368;BME280;36281;34.132;-118.018;2024-03-08T00:56:14;99849.38;;;12.22;100.00
50368;BME280;36281;34.132;-118.018;2024-03-08T00:58:43;99851.72;;;12.12;100.00
50368;BME280;36281;34.132;-118.018;2024-03-08T01:01:13;99880.06;;;12.00;100.00
50368;BME280;36281;34.132;-118.018;2024-03-08T01:03:45;99890.75;;;12.11;100.00
50368;BME280;36281;34.132;-118.018;2024-03-08T01:06:16;99896.56;;;12.02;100.00
50368;BME280;36281;34.132;-118.018;2024-03-08T01:08:45;99889.41;;;12.02;100.00
50368;BME280;36281;34.132;-118.018;2024-03-08T01:11:14;99889.66;;;12.01;100.00
50368;BME280;36281;34.132;-118.018;2024-03-08T01:13:43;99887.88;;;12.13;100.00
50368;BME280;36281;34.132;-118.018;2024-03-08T01:16:15;99889.66;;;12.01;100.00
50368;BME280;36281;34.132;-118.018;2024-03-08T01:18:45;99894.06;;;12.07;100.00
50368;BME280;36281;34.132;-118.018;2024-03-08T01:21:17;99904.38;;;11.97;100.00
50368;BME280;36281;34.132;-118.018;2024-03-08T01:23:46;99902.03;;;12.07;100.00
50368;BME280;36281;34.132;-118.018;2024-03-08T01:26:15;99908.94;;;12.08;100.00
50368;BME280;36281;34.132;-118.018;2024-03-08T01:28:44;99907.06;;;12.15;100.00
50368;BME280;36281;34.132;-118.018;2024-03-08T01:31:13;99913.91;;;12.23;100.00
50368;BME280;36281;34.132;-118.018;2024-03-08T01:33:43;99923.88;;;12.27;100.00
50368;BME280;36281;34.132;-118.018;2024-03-08T01:36:12;99917.31;;;12.30;100.00
50368;BME280;36281;34.132;-118.018;2024-03-08T01:38:45;99929.78;;;12.29;100.00
50368;BME280;36281;34.132;-118.018;2024-03-08T01:41:14;99931.69;;;12.40;100.00
50368;BME280;36281;34.132;-118.018;2024-03-08T01:43:46;99943.13;;;12.41;100.00
50368;BME280;36281;34.132;-118.018;2024-03-08T01:46:19;99940.25;;;12.42;100.00
50368;BME280;36281;34.132;-118.018;2024-03-08T01:48:53;99949.25;;;12.41;100.00
50368;BME280;36281;34.132;-118.018;2024-03-08T01:51:22;99950.06;;;12.42;100.00
50368;BME280;36281;34.132;-118.018;2024-03-08T01:53:53;99965.41;;;12.40;100.00
50368;BME280;36281;34.132;-118.018;2024-03-08T01:56:24;99967.69;;;12.36;100.00
50368;BME280;36281;34.132;-118.018;2024-03-08T01:58:55;99964.81;;;12.38;100.00
50368;BME280;36281;34.132;-118.018;2024-03-08T02:01:26;99964.00;;;12.37;100.00
50368;BME280;36281;34.132;-118.018;2024-03-08T02:03:57;99964.38;;;12.41;100.00
50368;BME280;36281;34.132;-118.018;2024-03-08T02:06:27;99977.41;;;12.42;100.00
50368;BME280;36281;34.132;-118.018;2024-03-08T02:09:01;99979.13;;;12.37;100.00
50368;BME280;36281;34.132;-118.018;2024-03-08T02:11:35;99986.44;;;12.41;100.00
50368;BME280;36281;34.132;-118.018;2024-03-08T02:14:05;99994.16;;;12.43;100.00
50368;BME280;36281;34.132;-118.018;2024-03-08T02:16:36;100006.50;;;12.37;100.00
50368;BME280;36281;34.132;-118.018;2024-03-08T02:19:06;100006.66;;;12.42;100.00
50368;BME280;36281;34.132;-118.018;2024-03-08T02:21:40;99998.63;;;12.49;100.00
50368;BME280;36281;34.132;-118.018;2024-03-08T02:24:09;100008.63;;;12.47;100.00
50368;BME280;36281;34.132;-118.018;2024-03-08T02:26:39;99997.34;;;12.52;100.00
50368;BME280;36281;34.132;-118.018;2024-03-08T02:29:08;99998.97;;;12.53;100.00
50368;BME280;36281;34.132;-118.018;2024-03-08T02:31:38;100004.38;;;12.46;100.00
50368;BME280;36281;34.132;-118.018;2024-03-08T02:34:08;100003.72;;;12.51;100.00
50368;BME280;36281;34.132;-118.018;2024-03-08T02:36:39;100014.34;;;12.51;100.00
50368;BME280;36281;34.132;-118.018;2024-03-08T02:39:09;100007.03;;;12.46;100.00
50368;BME280;36281;34.132;-118.018;2024-03-08T02:41:39;100004.50;;;12.51;100.00
50368;BME280;36281;34.132;-118.018;2024-03-08T02:44:08;100005.19;;;12.47;100.00
50368;BME280;36281;34.132;-118.018;2024-03-08T02:46:38;100004.66;;;12.38;100.00
50368;BME280;36281;34.132;-118.018;2024-03-08T02:49:09;100011.16;;;12.42;100.00
50368;BME280;36281;34.132;-118.018;2024-03-08T02:51:40;100014.84;;;12.41;100.00
50368;BME280;36281;34.132;-118.018;2024-03-08T02:54:09;100019.34;;;12.40;100.00
50368;BME280;36281;34.132;-118.018;2024-03-08T02:56:39;100016.69;;;12.40;100.00
50368;BME280;36281;34.132;-118.018;2024-03-08T02:59:10;100021.25;;;12.33;100.00
50368;BME280;36281;34.132;-118.018;2024-03-08T03:01:39;100023.22;;;12.20;100.00
50368;BME280;36281;34.132;-118.018;2024-03-08T03:04:10;100013.53;;;12.07;100.00
50368;BME280;36281;34.132;-118.018;2024-03-08T03:06:42;100012.13;;;12.04;100.00
50368;BME280;36281;34.132;-118.018;2024-03-08T03:09:13;100009.31;;;11.99;100.00
50368;BME280;36281;34.132;-118.018;2024-03-08T03:11:45;100017.53;;;11.91;100.00
50368;BME280;36281;34.132;-118.018;2024-03-08T03:14:15;100015.94;;;11.83;100.00
50368;BME280;36281;34.132;-118.018;2024-03-08T03:16:45;100019.22;;;11.85;100.00
50368;BME280;36281;34.132;-118.018;2024-03-08T03:19:14;100015.56;;;11.80;100.00
50368;BME280;36281;34.132;-118.018;2024-03-08T03:21:46;100013.97;;;11.72;100.00
50368;BME280;36281;34.132;-118.018;2024-03-08T03:24:16;100024.22;;;11.69;100.00
50368;BME280;36281;34.132;-118.018;2024-03-08T03:26:46;100031.34;;;11.68;100.00
50368;BME280;36281;34.132;-118.018;2024-03-08T03:29:17;100039.34;;;11.61;100.00
50368;BME280;36281;34.132;-118.018;2024-03-08T03:31:47;100046.66;;;11.66;100.00
50368;BME280;36281;34.132;-118.018;2024-03-08T03:34:16;100050.38;;;11.58;100.00
50368;BME280;36281;34.132;-118.018;2024-03-08T03:36:48;100058.56;;;11.57;100.00
50368;BME280;36281;34.132;-118.018;2024-03-08T03:39:18;100055.97;;;11.50;100.00
50368;BME280;36281;34.132;-118.018;2024-03-08T03:41:52;100061.47;;;11.49;100.00
50368;BME280;36281;34.132;-118.018;2024-03-08T03:44:22;100058.22;;;11.47;100.00
50368;BME280;36281;34.132;-118.018;2024-03-08T03:46:52;100050.25;;;11.47;100.00
50368;BME280;36281;34.132;-118.018;2024-03-08T03:49:22;100049.28;;;11.41;100.00
50368;BME280;36281;34.132;-118.018;2024-03-08T03:51:54;100047.25;;;11.36;100.00
50368;BME280;36281;34.132;-118.018;2024-03-08T03:54:23;100051.56;;;11.31;100.00
50368;BME280;36281;34.132;-118.018;2024-03-08T03:56:53;100051.78;;;11.29;100.00
50368;BME280;36281;34.132;-118.018;2024-03-08T03:59:23;100053.22;;;11.25;100.00
50368;BME280;36281;34.132;-118.018;2024-03-08T04:01:53;100052.59;;;11.23;100.00
50368;BME280;36281;34.132;-118.018;2024-03-08T04:04:23;100059.97;;;11.21;100.00
50368;BME280;36281;34.132;-118.018;2024-03-08T04:06:55;100055.53;;;11.15;100.00
50368;BME280;36281;34.132;-118.018;2024-03-08T04:09:24;100063.47;;;11.15;100.00
50368;BME280;36281;34.132;-118.018;2024-03-08T04:11:53;100064.50;;;11.14;100.00
50368;BME280;36281;34.132;-118.018;2024-03-08T04:14:24;100067.56;;;11.11;100.00
50368;BME280;36281;34.132;-118.018;2024-03-08T04:16:53;100063.06;;;11.11;100.00
50368;BME280;36281;34.132;-118.018;2024-03-08T04:19:23;100072.28;;;11.09;100.00
50368;BME280;36281;34.132;-118.018;2024-03-08T04:21:55;100067.38;;;11.06;100.00
50368;BME280;36281;34.132;-118.018;2024-03-08T04:24:24;100064.53;;;11.01;100.00
50368;BME280;36281;34.132;-118.018;2024-03-08T04:26:53;100064.09;;;11.04;100.00
50368;BME280;36281;34.132;-118.018;2024-03-08T04:29:23;100062.06;;;11.06;100.00
50368;BME280;36281;34.132;-118.018;2024-03-08T04:31:52;100069.03;;;11.00;100.00
50368;BME280;36281;34.132;-118.018;2024-03-08T04:34:24;100071.13;;;10.85;100.00
50368;BME280;36281;34.132;-118.018;2024-03-08T04:36:57;100076.81;;;10.82;100.00
50368;BME280;36281;34.132;-118.018;2024-03-08T04:39:26;100085.59;;;10.82;100.00
50368;BME280;36281;34.132;-118.018;2024-03-08T04:41:58;100091.13;;;10.74;100.00
50368;BME280;36281;34.132;-118.018;2024-03-08T04:44:32;100094.56;;;10.68;100.00
50368;BME280;36281;34.132;-118.018;2024-03-08T04:47:02;100098.66;;;10.64;100.00
50368;BME280;36281;34.132;-118.018;2024-03-08T04:49:31;100104.19;;;10.69;100.00
50368;BME280;36281;34.132;-118.018;2024-03-08T04:52:02;100107.81;;;10.68;100.00
50368;BME280;36281;34.132;-118.018;2024-03-08T04:54:31;100109.91;;;10.59;100.00
50368;BME280;36281;34.132;-118.018;2024-03-08T04:57:00;100111.91;;;10.64;100.00
50368;BME280;36281;34.132;-118.018;2024-03-08T04:59:33;100112.34;;;10.54;100.00
50368;BME280;36281;34.132;-118.018;2024-03-08T05:02:03;100115.81;;;10.55;100.00
50368;BME280;36281;34.132;-118.018;2024-03-08T05:04:32;100112.53;;;10.46;100.00
50368;BME280;36281;34.132;-118.018;2024-03-08T05:07:03;100129.47;;;10.45;100.00
50368;BME280;36281;34.132;-118.018;2024-03-08T05:09:32;100136.19;;;10.54;100.00
50368;BME280;36281;34.132;-118.018;2024-03-08T05:12:02;100128.81;;;10.43;100.00
50368;BME280;36281;34.132;-118.018;2024-03-08T05:14:31;100133.53;;;10.41;100.00
50368;BME280;36281;34.132;-118.018;2024-03-08T05:17:00;100145.31;;;10.39;100.00
50368;BME280;36281;34.132;-118.018;2024-03-08T05:19:29;100148.41;;;10.35;100.00
50368;BME280;36281;34.132;-118.018;2024-03-08T05:22:03;100155.09;;;10.38;100.00
50368;BME280;36281;34.132;-118.018;2024-03-08T05:24:33;100156.13;;;10.30;100.00
50368;BME280;36281;34.132;-118.018;2024-03-08T05:27:02;100155.91;;;10.25;100.00
50368;BME280;36281;34.132;-118.018;2024-03-08T05:29:32;100156.28;;;10.22;100.00
50368;BME280;36281;34.132;-118.018;2024-03-08T05:32:01;100161.56;;;10.22;100.00
50368;BME280;36281;34.132;-118.018;2024-03-08T05:34:32;100162.38;;;10.23;100.00
50368;BME280;36281;34.132;-118.018;2024-03-08T05:37:03;100158.31;;;10.14;100.00
50368;BME280;36281;34.132;-118.018;2024-03-08T05:39:32;100158.78;;;10.30;100.00
50368;BME280;36281;34.132;-118.018;2024-03-08T05:42:01;100175.84;;;10.21;100.00
50368;BME280;36281;34.132;-118.018;2024-03-08T05:44:30;100198.22;;;10.12;100.00
50368;BME280;36281;34.132;-118.018;2024-03-08T05:46:59;100201.28;;;10.22;100.00
50368;BME280;36281;34.132;-118.018;2024-03-08T05:49:29;100197.00;;;10.15;100.00
50368;BME280;36281;34.132;-118.018;2024-03-08T05:51:58;100201.03;;;10.04;100.00
50368;BME280;36281;34.132;-118.018;2024-03-08T05:54:30;100207.16;;;10.04;100.00
50368;BME280;36281;34.132;-118.018;2024-03-08T05:57:01;100221.59;;;10.02;100.00
50368;BME280;36281;34.132;-118.018;2024-03-08T05:59:30;100225.84;;;9.96;100.00
50368;BME280;36281;34.132;-118.018;2024-03-08T06:01:59;100216.25;;;9.89;100.00
50368;BME280;36281;34.132;-118.018;2024-03-08T06:04:29;100217.69;;;9.84;100.00
50368;BME280;36281;34.132;-118.018;2024-03-08T06:06:58;100219.09;;;9.80;100.00
50368;BME280;36281;34.132;-118.018;2024-03-08T06:09:29;100228.81;;;9.73;100.00
50368;BME280;36281;34.132;-118.018;2024-03-08T06:11:58;100230.66;;;9.79;100.00
50368;BME280;36281;34.132;-118.018;2024-03-08T06:14:27;100241.06;;;9.81;100.00
50368;BME280;36281;34.132;-118.018;2024-03-08T06:16:56;100246.78;;;9.84;100.00
50368;BME280;36281;34.132;-118.018;2024-03-08T06:19:26;100254.72;;;9.84;100.00
50368;BME280;36281;34.132;-118.018;2024-03-08T06:21:55;100266.13;;;9.85;100.00
50368;BME280;36281;34.132;-118.018;2024-03-08T06:24:24;100264.66;;;9.82;100.00
50368;BME280;36281;34.132;-118.018;2024-03-08T06:26:55;100260.41;;;9.81;100.00
50368;BME280;36281;34.132;-118.018;2024-03-08T06:29:24;100266.06;;;9.78;100.00
50368;BME280;36281;34.132;-118.018;2024-03-08T06:31:53;100273.78;;;9.73;100.00
50368;BME280;36281;34.132;-118.018;2024-03-08T06:34:24;100277.88;;;9.76;100.00
50368;BME280;36281;34.132;-118.018;2024-03-08T06:36:53;100270.97;;;9.75;100.00
50368;BME280;36281;34.132;-118.018;2024-03-08T06:39:29;100269.13;;;9.75;100.00
50368;BME280;36281;34.132;-118.018;2024-03-08T06:42:01;100271.94;;;9.74;100.00
50368;BME280;36281;34.132;-118.018;2024-03-08T06:44:31;100269.72;;;9.77;100.00
50368;BME280;36281;34.132;-118.018;2024-03-08T06:47:01;100267.88;;;9.71;100.00
50368;BME280;36281;34.132;-118.018;2024-03-08T06:49:30;100266.63;;;9.67;100.00
50368;BME280;36281;34.132;-118.018;2024-03-08T06:52:00;100267.44;;;9.68;100.00
50368;BME280;36281;34.132;-118.018;2024-03-08T06:54:29;100268.09;;;9.70;100.00
50368;BME280;36281;34.132;-118.018;2024-03-08T06:56:58;100265.63;;;9.68;100.00
50368;BME280;36281;34.132;-118.018;2024-03-08T06:59:29;100264.56;;;9.63;100.00
50368;BME280;36281;34.132;-118.018;2024-03-08T07:01:58;100261.50;;;9.59;100.00
50368;BME280;36281;34.132;-118.018;2024-03-08T07:04:30;100264.72;;;9.54;100.00
50368;BME280;36281;34.132;-118.018;2024-03-08T07:07:00;100266.03;;;9.65;100.00
50368;BME280;36281;34.132;-118.018;2024-03-08T07:09:30;100272.41;;;9.49;100.00
50368;BME280;36281;34.132;-118.018;2024-03-08T07:11:59;100274.00;;;9.44;100.00
50368;BME280;36281;34.132;-118.018;2024-03-08T07:14:30;100275.84;;;9.43;100.00
50368;BME280;36281;34.132;-118.018;2024-03-08T07:16:59;100274.66;;;9.46;100.00
50368;BME280;36281;34.132;-118.018;2024-03-08T07:19:32;100278.31;;;9.45;100.00
50368;BME280;36281;34.132;-118.018;2024-03-08T07:22:01;100278.50;;;9.43;100.00
50368;BME280;36281;34.132;-118.018;2024-03-08T07:24:32;100277.69;;;9.43;100.00
50368;BME280;36281;34.132;-118.018;2024-03-08T07:27:07;100280.69;;;9.40;100.00
50368;BME280;36281;34.132;-118.018;2024-03-08T07:29:37;100269.50;;;9.38;100.00
50368;BME280;36281;34.132;-118.018;2024-03-08T07:32:07;100276.03;;;9.35;100.00
50368;BME280;36281;34.132;-118.018;2024-03-08T07:34:52;100280.06;;;9.31;100.00
50368;BME280;36281;34.132;-118.018;2024-03-08T07:37:21;100277.56;;;9.29;100.00
50368;BME280;36281;34.132;-118.018;2024-03-08T07:39:50;100282.47;;;9.26;100.00
50368;BME280;36281;34.132;-118.018;2024-03-08T07:42:19;100279.00;;;9.25;100.00
50368;BME280;36281;34.132;-118.018;2024-03-08T07:44:51;100293.44;;;9.29;100.00
50368;BME280;36281;34.132;-118.018;2024-03-08T07:47:21;100288.34;;;9.28;100.00
50368;BME280;36281;34.132;-118.018;2024-03-08T07:49:52;100290.78;;;9.29;100.00
50368;BME280;36281;34.132;-118.018;2024-03-08T07:52:22;100296.94;;;9.30;100.00
50368;BME280;36281;34.132;-118.018;2024-03-08T07:54:52;100298.66;;;9.16;100.00
50368;BME280;36281;34.132;-118.018;2024-03-08T07:57:21;100301.69;;;9.20;100.00
50368;BME280;36281;34.132;-118.018;2024-03-08T07:59:52;100303.50;;;9.13;100.00
50368;BME280;36281;34.132;-118.018;2024-03-08T08:02:21;100314.69;;;9.15;100.00
50368;BME280;36281;34.132;-118.018;2024-03-08T08:04:50;100320.16;;;9.13;100.00
50368;BME280;36281;34.132;-118.018;2024-03-08T08:07:19;100323.81;;;9.12;100.00
50368;BME280;36281;34.132;-118.018;2024-03-08T08:09:48;100321.41;;;9.17;100.00
50368;BME280;36281;34.132;-118.018;2024-03-08T08:12:17;100334.19;;;9.14;100.00
50368;BME280;36281;34.132;-118.018;2024-03-08T08:14:46;100337.16;;;9.04;100.00
50368;BME280;36281;34.132;-118.018;2024-03-08T08:17:17;100331.13;;;9.10;100.00
50368;BME280;36281;34.132;-118.018;2024-03-08T08:19:46;100332.59;;;8.91;100.00
50368;BME280;36281;34.132;-118.018;2024-03-08T08:22:15;100334.22;;;8.92;100.00
50368;BME280;36281;34.132;-118.018;2024-03-08T08:24:46;100344.16;;;8.90;100.00
50368;BME280;36281;34.132;-118.018;2024-03-08T08:27:15;100341.78;;;8.95;100.00
50368;BME280;36281;34.132;-118.018;2024-03-08T08:29:44;100350.38;;;8.83;100.00
50368;BME280;36281;34.132;-118.018;2024-03-08T08:32:16;100346.72;;;8.84;100.00
50368;BME280;36281;34.132;-118.018;2024-03-08T08:34:45;100350.63;;;8.88;100.00
50368;BME280;36281;34.132;-118.018;2024-03-08T08:37:14;100353.81;;;8.83;100.00
50368;BME280;36281;34.132;-118.018;2024-03-08T08:39:48;100360.56;;;8.86;100.00
50368;BME280;36281;34.132;-118.018;2024-03-08T08:42:19;100355.28;;;8.86;100.00
50368;BME280;36281;34.132;-118.018;2024-03-08T08:44:48;100351.06;;;8.91;100.00
50368;BME280;36281;34.132;-118.018;2024-03-08T08:47:23;100354.56;;;8.98;100.00
50368;BME280;36281;34.132;-118.018;2024-03-08T08:49:52;100352.03;;;9.05;100.00
50368;BME280;36281;34.132;-118.018;2024-03-08T08:52:22;100351.63;;;9.08;100.00
50368;BME280;36281;34.132;-118.018;2024-03-08T08:54:51;100346.44;;;9.00;100.00
50368;BME280;36281;34.132;-118.018;2024-03-08T08:57:20;100332.44;;;8.99;100.00
50368;BME280;36281;34.132;-118.018;2024-03-08T08:59:50;100332.25;;;9.01;100.00
50368;BME280;36281;34.132;-118.018;2024-03-08T09:02:19;100331.63;;;8.99;100.00
50368;BME280;36281;34.132;-118.018;2024-03-08T09:04:51;100333.44;;;8.98;100.00
50368;BME280;36281;34.132;-118.018;2024-03-08T09:07:21;100327.16;;;8.99;100.00
50368;BME280;36281;34.132;-118.018;2024-03-08T09:09:54;100329.38;;;8.96;100.00
50368;BME280;36281;34.132;-118.018;2024-03-08T09:12:41;100320.31;;;8.84;100.00
50368;BME280;36281;34.132;-118.018;2024-03-08T09:15:11;100323.75;;;8.84;100.00
50368;BME280;36281;34.132;-118.018;2024-03-08T09:17:40;100325.22;;;8.87;100.00
50368;BME280;36281;34.132;-118.018;2024-03-08T09:20:12;100317.75;;;8.90;100.00
50368;BME280;36281;34.132;-118.018;2024-03-08T09:22:44;100325.59;;;8.84;100.00
50368;BME280;36281;34.132;-118.018;2024-03-08T09:25:14;100326.53;;;8.76;100.00
50368;BME280;36281;34.132;-118.018;2024-03-08T09:27:43;100315.72;;;8.71;100.00
50368;BME280;36281;34.132;-118.018;2024-03-08T09:30:14;100322.69;;;8.78;100.00
50368;BME280;36281;34.132;-118.018;2024-03-08T09:32:43;100320.38;;;8.69;100.00
50368;BME280;36281;34.132;-118.018;2024-03-08T09:35:14;100325.59;;;8.62;100.00
50368;BME280;36281;34.132;-118.018;2024-03-08T09:37:43;100324.22;;;8.66;100.00
50368;BME280;36281;34.132;-118.018;2024-03-08T09:40:13;100323.19;;;8.67;100.00
50368;BME280;36281;34.132;-118.018;2024-03-08T09:42:44;100315.59;;;8.58;100.00
50368;BME280;36281;34.132;-118.018;2024-03-08T09:45:13;100306.41;;;8.53;100.00
50368;BME280;36281;34.132;-118.018;2024-03-08T09:47:45;100308.59;;;8.50;100.00
50368;BME280;36281;34.132;-118.018;2024-03-08T09:50:17;100303.50;;;8.48;100.00
50368;BME280;36281;34.132;-118.018;2024-03-08T09:52:48;100302.88;;;8.46;100.00
50368;BME280;36281;34.132;-118.018;2024-03-08T09:55:18;100309.50;;;8.57;100.00
50368;BME280;36281;34.132;-118.018;2024-03-08T09:57:51;100320.41;;;8.54;100.00
50368;BME280;36281;34.132;-118.018;2024-03-08T10:00:41;100307.88;;;8.56;100.00
50368;BME280;36281;34.132;-118.018;2024-03-08T10:03:10;100313.16;;;8.56;100.00
50368;BME280;36281;34.132;-118.018;2024-03-08T10:05:43;100317.91;;;8.46;100.00
50368;BME280;36281;34.132;-118.018;2024-03-08T10:08:15;100307.72;;;8.43;100.00
50368;BME280;36281;34.132;-118.018;2024-03-08T10:10:44;100305.81;;;8.37;100.00
50368;BME280;36281;34.132;-118.018;2024-03-08T10:13:14;100305.97;;;8.35;100.00
50368;BME280;36281;34.132;-118.018;2024-03-08T10:15:44;100304.53;;;8.33;100.00
50368;BME280;36281;34.132;-118.018;2024-03-08T10:18:14;100289.00;;;8.23;100.00
50368;BME280;36281;34.132;-118.018;2024-03-08T10:20:45;100306.72;;;8.29;100.00
50368;BME280;36281;34.132;-118.018;2024-03-08T10:23:14;100303.34;;;8.20;100.00
50368;BME280;36281;34.132;-118.018;2024-03-08T10:25:44;100302.81;;;8.25;100.00
50368;BME280;36281;34.132;-118.018;2024-03-08T10:28:13;100305.97;;;8.35;100.00
50368;BME280;36281;34.132;-118.018;2024-03-08T10:30:47;100307.66;;;8.21;100.00
50368;BME280;36281;34.132;-118.018;2024-03-08T10:33:17;100306.75;;;8.14;100.00
50368;BME280;36281;34.132;-118.018;2024-03-08T10:35:47;100307.28;;;8.10;100.00
50368;BME280;36281;34.132;-118.018;2024-03-08T10:38:18;100305.22;;;8.05;100.00
50368;BME280;36281;34.132;-118.018;2024-03-08T10:40:49;100304.41;;;8.04;100.00
50368;BME280;36281;34.132;-118.018;2024-03-08T10:43:24;100298.41;;;8.11;100.00
50368;BME280;36281;34.132;-118.018;2024-03-08T10:46:03;100314.03;;;8.12;100.00
50368;BME280;36281;34.132;-118.018;2024-03-08T10:48:42;100315.84;;;8.12;100.00
50368;BME280;36281;34.132;-118.018;2024-03-08T10:51:15;100320.59;;;8.16;100.00
50368;BME280;36281;34.132;-118.018;2024-03-08T10:53:45;100321.75;;;8.14;100.00
50368;BME280;36281;34.132;-118.018;2024-03-08T10:56:15;100305.31;;;7.97;100.00
50368;BME280;36281;34.132;-118.018;2024-03-08T10:58:44;100314.50;;;8.01;100.00
50368;BME280;36281;34.132;-118.018;2024-03-08T11:01:15;100323.41;;;8.00;100.00
50368;BME280;36281;34.132;-118.018;2024-03-08T11:03:48;100318.13;;;8.00;100.00
50368;BME280;36281;34.132;-118.018;2024-03-08T11:06:23;100311.28;;;8.20;100.00
50368;BME280;36281;34.132;-118.018;2024-03-08T11:08:58;100306.75;;;7.99;100.00
50368;BME280;36281;34.132;-118.018;2024-03-08T11:11:28;100313.25;;;7.97;100.00
50368;BME280;36281;34.132;-118.018;2024-03-08T11:14:02;100312.59;;;7.95;100.00
50368;BME280;36281;34.132;-118.018;2024-03-08T11:16:44;100311.78;;;7.94;100.00
50368;BME280;36281;34.132;-118.018;2024-03-08T11:19:31;100315.22;;;7.95;100.00
50368;BME280;36281;34.132;-118.018;2024-03-08T11:22:03;100313.13;;;7.90;100.00
50368;BME280;36281;34.132;-118.018;2024-03-08T11:24:39;100315.63;;;7.92;100.00
50368;BME280;36281;34.132;-118.018;2024-03-08T11:27:09;100313.97;;;7.91;100.00
50368;BME280;36281;34.132;-118.018;2024-03-08T11:29:39;100324.06;;;7.87;100.00
50368;BME280;36281;34.132;-118.018;2024-03-08T11:32:09;100318.69;;;7.81;100.00
50368;BME280;36281;34.132;-118.018;2024-03-08T11:34:43;100319.53;;;7.81;100.00
50368;BME280;36281;34.132;-118.018;2024-03-08T11:37:17;100317.72;;;7.82;100.00
50368;BME280;36281;34.132;-118.018;2024-03-08T11:39:55;100329.63;;;7.77;100.00
50368;BME280;36281;34.132;-118.018;2024-03-08T11:42:35;100330.44;;;7.78;100.00
50368;BME280;36281;34.132;-118.018;2024-03-08T11:45:09;100334.16;;;7.84;100.00
50368;BME280;36281;34.132;-118.018;2024-03-08T11:47:42;100328.53;;;7.87;100.00
50368;BME280;36281;34.132;-118.018;2024-03-08T11:50:11;100330.91;;;7.82;100.00
50368;BME280;36281;34.132;-118.018;2024-03-08T11:52:43;100338.34;;;7.93;100.00
50368;BME280;36281;34.132;-118.018;2024-03-08T11:55:13;100334.97;;;7.69;100.00
50368;BME280;36281;34.132;-118.018;2024-03-08T11:57:42;100342.72;;;7.86;100.00
50368;BME280;36281;34.132;-118.018;2024-03-08T12:00:16;100346.16;;;7.71;100.00
50368;BME280;36281;34.132;-118.018;2024-03-08T12:03:04;100343.94;;;7.60;100.00
50368;BME280;36281;34.132;-118.018;2024-03-08T12:05:34;100348.81;;;7.71;100.00
50368;BME280;36281;34.132;-118.018;2024-03-08T12:08:05;100351.31;;;7.65;100.00
50368;BME280;36281;34.132;-118.018;2024-03-08T12:10:41;100348.06;;;7.63;100.00
50368;BME280;36281;34.132;-118.018;2024-03-08T12:13:11;100354.06;;;7.57;100.00
50368;BME280;36281;34.132;-118.018;2024-03-08T12:15:42;100351.78;;;7.54;100.00
50368;BME280;36281;34.132;-118.018;2024-03-08T12:18:12;100353.59;;;7.53;100.00
50368;BME280;36281;34.132;-118.018;2024-03-08T12:20:41;100356.84;;;7.55;100.00
50368;BME280;36281;34.132;-118.018;2024-03-08T12:23:19;100367.13;;;7.50;100.00
50368;BME280;36281;34.132;-118.018;2024-03-08T12:25:48;100353.41;;;7.55;100.00
50368;BME280;36281;34.132;-118.018;2024-03-08T12:28:19;100357.50;;;7.57;100.00
50368;BME280;36281;34.132;-118.018;2024-03-08T12:30:51;100360.59;;;7.61;100.00
50368;BME280;36281;34.132;-118.018;2024-03-08T12:33:22;100357.53;;;7.72;100.00
50368;BME280;36281;34.132;-118.018;2024-03-08T12:35:52;100368.88;;;7.72;100.00